Time;durP1;ratioP1;P1;durP2;ratioP2;P2;SDS_P1;SDS_P2;PMS_P1;PMS_P2;Temp;Humidity;BMP_temperature;BMP_pressure;BME280_temperature;BME280_humidity;BME280_pressure;Samples;Min_cycle;Max_cycle;Signal;HPM_P1;HPM_P2
2021/07/24 00:01:46;;;;;;;0.30;0.30;;;;;;;20.18;57.17;101449.56;5009158;28;20036;-89
2021/07/24 00:04:18;;;;;;;0.10;0.10;;;;;;;20.18;57.51;101436.13;5001257;28;20328;-88
2021/07/24 00:06:46;;;;;;;0.50;0.50;;;;;;;20.16;57.37;101438.00;4997575;28;20022;-90
2021/07/24 00:09:13;;;;;;;0.10;0.10;;;;;;;20.13;57.67;101432.81;4998247;28;20026;-90
2021/07/24 00:11:39;;;;;;;0.20;0.20;;;;;;;20.10;57.59;101431.13;4999766;28;20022;-90
2021/07/24 00:14:06;;;;;;;0.22;0.22;;;;;;;20.13;57.31;101435.50;4997186;28;20058;-90
2021/07/24 00:16:32;;;;;;;0.55;0.55;;;;;;;20.10;57.90;101441.00;4997491;28;20078;-90
2021/07/24 00:18:58;;;;;;;0.10;0.10;;;;;;;20.10;57.84;101422.19;4996447;28;20050;-91
2021/07/24 00:21:25;;;;;;;0.22;0.22;;;;;;;20.08;58.05;101424.09;4998045;28;20113;-91
2021/07/24 00:23:51;;;;;;;0.65;0.65;;;;;;;20.07;57.90;101422.34;4998492;28;20034;-90
2021/07/24 00:26:17;;;;;;;0.28;0.28;;;;;;;20.03;58.47;101421.63;4995671;28;20101;-91
2021/07/24 00:28:44;;;;;;;0.25;0.25;;;;;;;20.02;58.58;101422.56;4996404;28;20465;-91
2021/07/24 00:31:10;;;;;;;0.10;0.10;;;;;;;20.02;58.08;101409.13;4999891;28;20539;-91
2021/07/24 00:33:36;;;;;;;0.17;0.17;;;;;;;19.98;57.89;101403.03;5006988;28;20026;-90
2021/07/24 00:36:03;;;;;;;0.10;0.10;;;;;;;20.00;57.91;101406.53;4995705;28;20023;-90
2021/07/24 00:38:29;;;;;;;0.57;0.57;;;;;;;19.99;58.37;101394.03;5000666;28;20115;-88
2021/07/24 00:41:03;;;;;;;0.15;0.15;;;;;;;20.03;57.93;101395.59;4999025;28;20389;-91
2021/07/24 00:43:32;;;;;;;0.60;0.38;;;;;;;19.91;59.17;101395.34;5009768;28;20054;-90
2021/07/24 00:46:01;;;;;;;0.08;0.08;;;;;;;19.97;58.35;101390.53;5009801;28;20034;-91
2021/07/24 00:48:31;;;;;;;3.83;0.45;;;;;;;20.00;58.49;101384.13;5012434;28;20358;-90
2021/07/24 00:51:00;;;;;;;0.20;0.20;;;;;;;20.01;58.47;101376.00;5012648;28;20038;-91
2021/07/24 00:53:35;;;;;;;0.10;0.10;;;;;;;20.01;58.39;101373.31;5016796;28;20390;-91
2021/07/24 00:56:03;;;;;;;0.10;0.10;;;;;;;19.94;58.78;101360.22;5013609;28;20485;-90
2021/07/24 00:58:32;;;;;;;1.95;0.90;;;;;;;19.98;58.24;101360.00;5012350;28;20072;-90
2021/07/24 01:01:00;;;;;;;0.10;0.10;;;;;;;19.97;58.65;101363.63;4999795;28;20030;-91
2021/07/24 01:03:28;;;;;;;1.08;0.70;;;;;;;19.97;58.91;101363.63;5004466;28;20122;-91
2021/07/24 01:05:56;;;;;;;0.10;0.10;;;;;;;19.92;58.47;101363.00;4999544;28;20057;-90
2021/07/24 01:08:24;;;;;;;0.10;0.10;;;;;;;19.97;58.28;101366.31;5001598;28;20038;-91
2021/07/24 01:10:52;;;;;;;0.32;0.32;;;;;;;19.95;58.74;101352.09;4999804;28;20102;-91
2021/07/24 01:13:19;;;;;;;0.10;0.10;;;;;;;20.00;57.97;101360.81;4999202;28;20037;-90
2021/07/24 01:15:49;;;;;;;0.50;0.50;;;;;;;20.00;57.87;101346.47;4995354;28;20058;-89
2021/07/24 01:18:16;;;;;;;1.45;0.65;;;;;;;20.00;58.26;101347.34;5000682;28;20116;-90
2021/07/24 01:20:44;;;;;;;0.10;0.10;;;;;;;20.01;57.71;101340.13;4997406;28;20037;-91
2021/07/24 01:23:14;;;;;;;0.15;0.15;;;;;;;19.97;58.68;101335.88;5000719;28;20029;-91
2021/07/24 01:25:45;;;;;;;0.10;0.10;;;;;;;19.98;58.25;101327.72;4999274;28;20026;-90
2021/07/24 01:28:13;;;;;;;0.10;0.10;;;;;;;19.97;58.24;101319.75;5004131;28;20124;-90
2021/07/24 01:30:42;;;;;;;0.00;0.00;;;;;;;19.96;58.91;101321.56;4998831;28;20112;-89
2021/07/24 01:33:10;;;;;;;0.15;0.15;;;;;;;19.91;58.12;101310.16;4996081;28;20768;-90
2021/07/24 01:35:44;;;;;;;0.20;0.20;;;;;;;19.87;59.09;101305.91;5000818;28;20029;-91
2021/07/24 01:38:10;;;;;;;7.30;1.02;;;;;;;19.84;58.17;101289.94;4995425;28;20042;-91
2021/07/24 01:40:39;;;;;;;0.70;0.55;;;;;;;19.84;58.68;101282.72;4998288;28;20037;-89
2021/07/24 01:43:05;;;;;;;1.55;0.85;;;;;;;19.79;58.31;101282.06;4994695;28;20030;-88
2021/07/24 01:45:34;;;;;;;1.75;0.75;;;;;;;19.72;58.98;101286.88;5000783;28;20035;-91
2021/07/24 01:48:02;;;;;;;0.13;0.13;;;;;;;19.70;58.78;101290.59;4996690;28;20026;-89
2021/07/24 01:53:18;;;;;;;0.15;0.15;;;;;;;19.66;59.46;101284.50;5003463;28;20117;-90
2021/07/24 01:56:03;;;;;;;0.15;0.15;;;;;;;19.72;58.34;101289.56;4996483;28;20343;-90
2021/07/24 01:58:34;;;;;;;0.10;0.10;;;;;;;19.68;58.34;101289.81;4993488;28;20034;-91
2021/07/24 02:01:04;;;;;;;0.10;0.10;;;;;;;19.65;58.93;101281.91;4992911;28;20105;-89
2021/07/24 02:03:37;;;;;;;0.10;0.10;;;;;;;19.58;58.79;101275.97;4992722;28;20125;-90
2021/07/24 02:06:04;;;;;;;0.35;0.35;;;;;;;19.60;58.94;101274.09;4998998;28;20061;-88
2021/07/24 02:08:32;;;;;;;0.40;0.40;;;;;;;19.58;59.64;101278.66;5000131;28;20030;-89
2021/07/24 02:11:00;;;;;;;0.10;0.10;;;;;;;19.56;58.59;101278.75;5002180;28;20019;-90
2021/07/24 02:13:27;;;;;;;0.65;0.65;;;;;;;19.51;59.51;101269.19;4999895;28;20477;-90
2021/07/24 02:15:53;;;;;;;0.10;0.10;;;;;;;19.48;59.15;101280.09;4997747;28;20096;-88
2021/07/24 02:18:20;;;;;;;0.90;0.90;;;;;;;19.45;59.69;101275.75;4998558;28;20022;-90
2021/07/24 02:20:51;;;;;;;0.03;0.03;;;;;;;19.45;59.49;101283.81;4994677;28;20036;-90
2021/07/24 02:23:18;;;;;;;0.10;0.10;;;;;;;19.40;58.92;101286.72;5004489;28;20026;-90
2021/07/24 02:25:45;;;;;;;0.00;0.00;;;;;;;19.37;59.20;101273.41;5002883;28;20076;-87
2021/07/24 02:28:12;;;;;;;1.90;0.63;;;;;;;19.35;59.05;101275.34;5004356;28;20046;-90
2021/07/24 02:30:39;;;;;;;0.30;0.30;;;;;;;19.31;59.33;101260.28;4998263;28;20485;-91
2021/07/24 02:33:05;;;;;;;0.10;0.10;;;;;;;19.28;59.50;101257.78;4995558;28;20053;-91
2021/07/24 02:35:32;;;;;;;0.10;0.10;;;;;;;19.24;59.48;101261.56;4994599;28;20034;-90
2021/07/24 02:37:59;;;;;;;0.00;0.00;;;;;;;19.19;59.67;101253.72;5004891;28;20462;-91
2021/07/24 02:40:26;;;;;;;0.10;0.10;;;;;;;19.18;59.81;101245.75;5006595;28;20042;-90
2021/07/24 02:42:54;;;;;;;0.65;0.47;;;;;;;19.15;59.94;101240.53;4998857;28;20390;-90
2021/07/24 02:45:21;;;;;;;0.10;0.10;;;;;;;19.15;59.56;101237.84;4995964;28;20031;-90
2021/07/24 02:47:47;;;;;;;0.00;0.00;;;;;;;19.13;59.49;101232.56;5000855;28;20030;-90
2021/07/24 02:50:13;;;;;;;0.00;0.00;;;;;;;19.08;59.92;101227.41;4995672;28;20366;-90
2021/07/24 02:52:40;;;;;;;0.10;0.10;;;;;;;19.08;59.64;101239.97;4996563;28;20030;-89
2021/07/24 02:55:07;;;;;;;2.72;0.50;;;;;;;19.06;59.94;101245.41;5000607;28;20030;-90
2021/07/24 02:57:34;;;;;;;0.90;0.90;;;;;;;19.05;59.86;101241.00;4995434;28;20026;-90
2021/07/24 03:00:02;;;;;;;1.55;0.88;;;;;;;19.04;60.21;101231.19;5009804;28;20034;-90
2021/07/24 03:02:29;;;;;;;1.60;1.13;;;;;;;19.02;59.95;101222.34;5003571;28;20036;-90
2021/07/24 03:04:58;;;;;;;0.10;0.10;;;;;;;19.04;59.97;101209.72;4998883;28;20030;-90
2021/07/24 03:07:24;;;;;;;0.03;0.03;;;;;;;19.00;59.93;101200.03;4998812;28;20022;-90
2021/07/24 03:10:01;;;;;;;0.55;0.55;;;;;;;18.97;61.03;101194.84;4999964;28;20470;-90
2021/07/24 03:12:40;;;;;;;0.30;0.30;;;;;;;19.02;60.05;101200.00;5014375;28;20038;-90
2021/07/24 03:15:14;;;;;;;0.00;0.00;;;;;;;18.97;60.09;101205.59;5013477;28;20042;-90
2021/07/24 03:17:51;;;;;;;0.10;0.10;;;;;;;18.96;60.77;101201.16;5007014;28;20050;-89
2021/07/24 03:20:17;;;;;;;0.10;0.10;;;;;;;18.90;60.79;101196.06;5007750;28;20030;-90
2021/07/24 03:22:44;;;;;;;0.20;0.20;;;;;;;18.78;61.11;101170.69;5001602;28;20026;-89
2021/07/24 03:25:10;;;;;;;0.00;0.00;;;;;;;18.80;61.23;101143.78;5006207;28;20026;-89
2021/07/24 03:27:37;;;;;;;0.10;0.10;;;;;;;18.72;61.47;101134.28;4999733;28;20026;-89
2021/07/24 03:30:04;;;;;;;0.10;0.10;;;;;;;18.59;62.35;101136.72;5003854;28;20034;-89
2021/07/24 03:32:31;;;;;;;0.30;0.30;;;;;;;18.57;61.88;101157.38;4997567;28;20034;-89
2021/07/24 03:34:58;;;;;;;0.00;0.00;;;;;;;18.64;61.02;101152.59;4997131;28;20046;-89
2021/07/24 03:37:24;;;;;;;0.10;0.10;;;;;;;18.63;61.02;101163.38;4999701;28;20073;-89
2021/07/24 03:39:50;;;;;;;0.38;0.38;;;;;;;18.65;61.16;101173.09;5004467;28;20036;-89
2021/07/24 03:42:17;;;;;;;0.00;0.00;;;;;;;18.63;60.69;101175.00;5001944;28;20547;-90
2021/07/24 03:44:43;;;;;;;0.20;0.20;;;;;;;18.55;62.42;101169.97;5005818;28;20120;-89
2021/07/24 03:47:09;;;;;;;0.20;0.20;;;;;;;18.63;61.32;101163.38;5005954;28;20056;-90
2021/07/24 03:49:37;;;;;;;0.73;0.73;;;;;;;18.57;62.61;101164.56;5001776;28;20034;-90
2021/07/24 03:52:04;;;;;;;0.30;0.30;;;;;;;18.61;61.49;101159.94;5000367;28;20031;-89
2021/07/24 03:54:30;;;;;;;0.10;0.10;;;;;;;18.55;62.75;101155.72;4998630;28;20033;-90
2021/07/24 03:56:56;;;;;;;0.10;0.10;;;;;;;18.63;61.61;101150.84;4996468;28;20469;-89
2021/07/24 03:59:23;;;;;;;0.75;0.68;;;;;;;18.68;61.05;101151.50;4996194;28;20026;-90
2021/07/24 04:01:52;;;;;;;1.33;1.23;;;;;;;18.65;61.39;101146.25;5003135;28;20029;-90
2021/07/24 04:04:18;;;;;;;0.45;0.45;;;;;;;18.65;62.00;101151.63;5001145;28;20030;-90
2021/07/24 04:06:45;;;;;;;0.30;0.30;;;;;;;18.64;62.53;101159.75;5004968;28;20465;-89
2021/07/24 04:09:12;;;;;;;0.40;0.40;;;;;;;18.68;62.30;101172.06;4999387;28;20054;-90
2021/07/24 04:11:38;;;;;;;1.33;0.47;;;;;;;18.69;62.27;101172.03;5002187;28;20073;-89
2021/07/24 04:14:05;;;;;;;3.92;1.75;;;;;;;18.73;62.21;101170.91;4994700;28;20033;-89
2021/07/24 04:16:34;;;;;;;2.92;0.85;;;;;;;18.80;62.00;101184.03;4999802;28;20038;-90
2021/07/24 04:19:03;;;;;;;1.08;1.08;;;;;;;18.81;61.46;101188.47;4997279;28;20021;-90
2021/07/24 04:21:29;;;;;;;0.10;0.10;;;;;;;18.85;61.76;101198.09;4996763;28;20034;-89
2021/07/24 04:23:55;;;;;;;0.00;0.00;;;;;;;18.88;61.81;101196.13;5001296;28;20389;-90
2021/07/24 04:26:24;;;;;;;0.20;0.20;;;;;;;18.97;61.77;101196.66;4996995;28;20022;-90
2021/07/24 04:28:53;;;;;;;0.03;0.03;;;;;;;19.07;61.58;101196.13;4993624;28;20558;-90
2021/07/24 04:31:19;;;;;;;0.10;0.10;;;;;;;19.11;61.23;101190.59;4995235;28;20572;-89
2021/07/24 04:33:46;;;;;;;0.10;0.10;;;;;;;19.16;61.21;101199.28;5012214;28;20164;-89
2021/07/24 04:36:13;;;;;;;0.20;0.20;;;;;;;19.23;61.48;101201.59;5012809;28;20037;-89
2021/07/24 04:38:41;;;;;;;0.10;0.10;;;;;;;19.28;61.00;101208.53;5012268;28;20022;-90
2021/07/24 04:41:07;;;;;;;0.10;0.10;;;;;;;19.32;60.59;101202.94;5012524;28;20030;-89
2021/07/24 04:43:33;;;;;;;0.15;0.15;;;;;;;19.36;60.63;101191.06;5011907;28;20465;-90
2021/07/24 04:45:59;;;;;;;0.30;0.30;;;;;;;19.38;60.43;101183.81;5012695;28;20488;-89
2021/07/24 04:48:26;;;;;;;0.10;0.10;;;;;;;19.42;60.50;101176.47;5012479;28;20481;-90
2021/07/24 04:50:54;;;;;;;0.15;0.15;;;;;;;19.46;60.38;101182.56;5012497;28;20026;-90
2021/07/24 04:53:21;;;;;;;0.20;0.20;;;;;;;19.48;60.50;101164.53;5012700;28;20028;-89
2021/07/24 04:55:48;;;;;;;1.30;1.13;;;;;;;19.50;60.45;101160.81;5012426;28;20030;-89
2021/07/24 04:58:15;;;;;;;0.20;0.20;;;;;;;19.55;60.34;101160.56;5012150;28;20030;-89
2021/07/24 05:00:44;;;;;;;0.05;0.05;;;;;;;19.58;60.77;101157.72;5012583;28;20144;-89
2021/07/24 05:03:13;;;;;;;0.30;0.30;;;;;;;19.62;60.75;101151.22;5011693;28;20037;-90
2021/07/24 05:05:41;;;;;;;0.20;0.20;;;;;;;19.69;59.83;101155.31;5008495;28;20034;-90
2021/07/24 05:08:09;;;;;;;0.40;0.40;;;;;;;19.64;60.23;101172.63;5012199;28;20065;-90
2021/07/24 05:10:36;;;;;;;0.10;0.10;;;;;;;19.68;60.69;101180.47;5012087;28;20034;-90
2021/07/24 05:13:02;;;;;;;0.03;0.03;;;;;;;19.80;60.23;101156.56;5012166;28;20026;-90
2021/07/24 05:15:28;;;;;;;0.20;0.20;;;;;;;19.88;59.97;101157.06;5012143;28;20480;-90
2021/07/24 05:17:54;;;;;;;0.10;0.10;;;;;;;19.97;59.95;101155.69;5012167;28;20018;-89
2021/07/24 05:20:21;;;;;;;0.15;0.15;;;;;;;20.02;59.98;101154.47;5012213;28;20080;-91
2021/07/24 05:22:47;;;;;;;1.65;1.55;;;;;;;20.07;60.26;101137.22;5012458;28;20072;-90
2021/07/24 05:25:13;;;;;;;0.35;0.35;;;;;;;20.16;59.96;101144.78;5010287;28;20030;-91
2021/07/24 05:27:39;;;;;;;0.88;0.88;;;;;;;20.24;59.85;101156.00;5012278;28;20057;-91
2021/07/24 05:30:06;;;;;;;0.13;0.13;;;;;;;20.33;59.71;101150.06;5011984;28;20500;-90
2021/07/24 05:32:34;;;;;;;0.40;0.40;;;;;;;20.44;59.57;101146.78;5012177;28;20040;-90
2021/07/24 05:35:00;;;;;;;1.40;0.75;;;;;;;20.48;59.24;101148.34;5011759;28;20104;-91
2021/07/24 05:37:27;;;;;;;0.20;0.20;;;;;;;20.56;59.15;101153.31;5012848;28;20360;-90
2021/07/24 05:39:53;;;;;;;0.90;0.65;;;;;;;20.63;59.13;101141.22;5011919;28;20030;-90
2021/07/24 05:42:19;;;;;;;0.10;0.10;;;;;;;20.68;59.26;101139.13;5012736;28;20038;-91
2021/07/24 05:44:45;;;;;;;0.10;0.10;;;;;;;20.73;59.21;101132.66;5012165;28;20030;-90
2021/07/24 05:47:11;;;;;;;0.10;0.10;;;;;;;20.80;59.08;101129.50;5015712;28;20029;-90
2021/07/24 05:49:37;;;;;;;0.13;0.13;;;;;;;20.86;58.98;101114.81;5015621;28;20030;-91
2021/07/24 05:52:09;;;;;;;0.10;0.10;;;;;;;20.97;58.48;101120.44;5015554;28;20052;-91
2021/07/24 05:54:36;;;;;;;0.45;0.32;;;;;;;20.98;58.33;101124.84;5015315;28;20065;-89
2021/07/24 05:57:04;;;;;;;0.50;0.50;;;;;;;21.01;58.16;101121.97;5015625;28;20378;-91
2021/07/24 05:59:31;;;;;;;0.03;0.03;;;;;;;21.12;57.94;101118.66;5014948;28;20022;-91
2021/07/24 06:01:58;;;;;;;0.10;0.10;;;;;;;21.20;58.18;101106.53;5015486;28;20030;-90
2021/07/24 06:04:24;;;;;;;0.43;0.43;;;;;;;21.25;57.95;101110.69;5007131;28;20034;-90
2021/07/24 06:06:50;;;;;;;0.20;0.20;;;;;;;21.29;58.09;101114.91;5001998;28;20070;-90
2021/07/24 06:09:16;;;;;;;3.83;0.90;;;;;;;21.24;57.58;101108.09;5011575;28;20022;-89
2021/07/24 06:11:42;;;;;;;0.05;0.05;;;;;;;21.33;57.33;101113.78;5014932;28;20026;-90
2021/07/24 06:14:08;;;;;;;0.85;0.85;;;;;;;21.39;57.55;101098.19;5015125;28;20034;-89
2021/07/24 06:16:37;;;;;;;0.30;0.30;;;;;;;21.41;58.25;101104.34;5015176;28;20120;-90
2021/07/24 06:19:03;;;;;;;0.10;0.10;;;;;;;21.43;57.21;101106.00;5014977;28;20030;-90
2021/07/24 06:21:30;;;;;;;0.55;0.55;;;;;;;21.44;57.39;101105.03;5011395;28;20036;-90
2021/07/24 06:23:56;;;;;;;0.10;0.10;;;;;;;21.54;57.22;101108.03;5014886;28;20033;-91
2021/07/24 06:26:22;;;;;;;0.10;0.10;;;;;;;21.60;57.11;101110.38;5014432;28;20432;-90
2021/07/24 06:28:48;;;;;;;0.65;0.65;;;;;;;21.68;56.88;101111.72;5013972;28;20080;-90
2021/07/24 06:31:14;;;;;;;0.10;0.10;;;;;;;21.76;56.79;101110.28;5013360;28;20026;-92
2021/07/24 06:33:41;;;;;;;0.20;0.20;;;;;;;21.78;56.81;101110.16;5008279;28;20112;-91
2021/07/24 06:36:07;;;;;;;0.10;0.10;;;;;;;21.82;56.33;101100.94;5014640;28;20034;-90
2021/07/24 06:38:33;;;;;;;0.15;0.15;;;;;;;21.93;56.38;101106.53;5014803;28;20026;-88
2021/07/24 06:41:00;;;;;;;2.40;1.13;;;;;;;21.99;56.21;101105.25;5014756;28;20600;-90
2021/07/24 06:43:26;;;;;;;0.10;0.10;;;;;;;22.03;55.79;101105.91;5015374;28;20452;-91
2021/07/24 06:45:52;;;;;;;0.10;0.10;;;;;;;22.08;56.00;101099.28;5015042;28;20025;-90
2021/07/24 06:48:19;;;;;;;0.20;0.20;;;;;;;22.09;55.71;101092.03;5015036;28;20098;-89
2021/07/24 06:50:45;;;;;;;0.22;0.22;;;;;;;22.17;55.74;101087.00;5014253;28;20061;-89
2021/07/24 06:53:11;;;;;;;1.08;0.52;;;;;;;22.25;55.79;101090.06;5014940;28;20125;-89
2021/07/24 06:55:37;;;;;;;0.10;0.10;;;;;;;22.24;55.26;101082.06;5014652;28;20077;-90
2021/07/24 06:58:03;;;;;;;1.17;0.25;;;;;;;22.33;55.42;101075.19;5016828;28;20077;-88
2021/07/24 07:00:31;;;;;;;0.10;0.10;;;;;;;22.40;55.53;101069.31;5014914;28;20393;-90
2021/07/24 07:02:59;;;;;;;1.40;1.30;;;;;;;22.39;55.39;101075.72;5014106;28;20085;-89
2021/07/24 07:05:26;;;;;;;0.10;0.10;;;;;;;22.57;55.00;101065.50;5014208;28;20018;-90
2021/07/24 07:07:53;;;;;;;0.73;0.73;;;;;;;22.60;54.70;101061.72;5014795;28;20125;-90
2021/07/24 07:10:20;;;;;;;0.00;0.00;;;;;;;22.74;54.70;101063.50;5010571;28;20041;-87
2021/07/24 07:12:46;;;;;;;0.25;0.25;;;;;;;22.79;54.27;101061.34;5014461;28;20350;-86
2021/07/24 07:15:12;;;;;;;0.45;0.45;;;;;;;22.87;54.84;101053.59;5014404;28;20026;-90
2021/07/24 07:17:38;;;;;;;0.10;0.10;;;;;;;23.00;54.60;101055.44;5013850;28;20026;-91
2021/07/24 07:20:07;;;;;;;0.30;0.30;;;;;;;23.10;54.25;101059.22;5013913;28;20108;-92
2021/07/24 07:22:37;;;;;;;0.10;0.10;;;;;;;23.18;54.15;101067.72;5014208;28;20038;-91
2021/07/24 07:25:03;;;;;;;2.83;0.70;;;;;;;23.21;54.33;101059.38;5013881;28;20125;-92
2021/07/24 07:27:30;;;;;;;0.57;0.57;;;;;;;23.27;53.48;101050.81;5013812;28;20025;-93
2021/07/24 07:29:56;;;;;;;0.28;0.28;;;;;;;23.23;53.92;101048.47;5013312;28;20043;-92
2021/07/24 07:32:25;;;;;;;1.48;0.93;;;;;;;23.35;53.66;101052.13;5012492;28;20032;-93
2021/07/24 07:34:52;;;;;;;0.10;0.10;;;;;;;23.42;53.53;101048.88;5014174;28;20026;-93
2021/07/24 07:37:18;;;;;;;0.10;0.10;;;;;;;23.52;53.03;101038.28;5013990;28;20032;-92
2021/07/24 07:39:44;;;;;;;0.10;0.10;;;;;;;23.52;53.08;101032.00;5013889;28;20125;-94
2021/07/24 07:42:10;;;;;;;0.00;0.00;;;;;;;23.66;53.30;101028.31;5013655;28;20041;-92
2021/07/24 07:44:36;;;;;;;0.20;0.20;;;;;;;23.73;52.64;101035.00;5013997;28;20022;-94
2021/07/24 07:47:02;;;;;;;0.20;0.20;;;;;;;23.79;52.78;101039.97;5013641;28;20104;-94
2021/07/24 07:49:29;;;;;;;0.10;0.10;;;;;;;23.89;52.46;101030.19;5013852;28;20058;-93
2021/07/24 07:51:55;;;;;;;0.30;0.30;;;;;;;23.88;52.85;101028.47;5013645;28;20022;-93
2021/07/24 07:54:21;;;;;;;0.13;0.13;;;;;;;23.98;52.34;101023.28;5014152;28;20034;-95
2021/07/24 07:56:48;;;;;;;0.40;0.40;;;;;;;24.10;52.40;101018.81;5013387;28;20064;-94
2021/07/24 07:59:20;;;;;;;4.03;1.10;;;;;;;24.23;52.47;101021.44;5013397;28;20044;-93
2021/07/24 08:01:46;;;;;;;;;;;;;;;24.40;51.99;101017.47;5013158;28;20037;-93
2021/07/24 08:04:12;;;;;;;0.32;0.32;;;;;;;24.36;52.34;101022.25;5013540;28;19913;-89
2021/07/24 08:06:38;;;;;;;2.10;0.63;;;;;;;24.32;52.74;101014.47;5013394;28;20461;-94
2021/07/24 08:09:04;;;;;;;0.40;0.40;;;;;;;24.39;52.61;101013.88;5012919;28;20033;-87
2021/07/24 08:11:31;;;;;;;0.90;0.90;;;;;;;24.47;52.23;101016.00;5013714;28;20022;-87
2021/07/24 08:13:58;;;;;;;0.10;0.10;;;;;;;24.51;51.78;101003.97;5022716;28;20191;-88
2021/07/24 08:16:24;;;;;;;0.73;0.73;;;;;;;24.49;52.00;101008.63;5014312;28;20072;-87
2021/07/24 08:18:50;;;;;;;0.10;0.10;;;;;;;24.55;52.07;101005.44;5013065;28;20026;-87
2021/07/24 08:21:17;;;;;;;0.30;0.30;;;;;;;24.67;51.64;101005.53;5013194;28;20053;-87
2021/07/24 08:23:43;;;;;;;0.63;0.63;;;;;;;24.65;51.96;101011.06;5012972;28;20075;-88
2021/07/24 08:26:09;;;;;;;0.40;0.40;;;;;;;24.69;51.36;101009.84;5013095;28;20532;-87
2021/07/24 08:28:35;;;;;;;0.43;0.43;;;;;;;24.79;51.08;100998.31;5012551;28;20030;-87
2021/07/24 08:31:01;;;;;;;0.52;0.52;;;;;;;24.83;51.62;100997.06;5012386;28;20469;-87
2021/07/24 08:33:28;;;;;;;0.43;0.40;;;;;;;24.89;51.63;100990.31;5013071;28;20545;-87
2021/07/24 08:35:56;;;;;;;0.20;0.20;;;;;;;24.96;51.48;100997.84;5012819;28;20032;-87
2021/07/24 08:38:22;;;;;;;0.10;0.10;;;;;;;24.99;51.10;100992.16;5012931;28;20045;-87
2021/07/24 08:40:49;;;;;;;0.10;0.10;;;;;;;25.03;50.64;100990.97;5012056;28;20436;-87
2021/07/24 08:43:16;;;;;;;0.22;0.22;;;;;;;25.05;51.36;100996.25;5012327;28;20583;-88
2021/07/24 08:45:43;;;;;;;0.20;0.20;;;;;;;25.10;50.98;100998.59;5013934;28;20025;-88
2021/07/24 08:48:10;;;;;;;0.50;0.50;;;;;;;25.12;51.14;100991.19;5014048;28;20032;-88
2021/07/24 08:50:39;;;;;;;0.25;0.25;;;;;;;25.01;50.92;100990.22;5012074;28;20036;-87
2021/07/24 08:53:06;;;;;;;0.20;0.20;;;;;;;25.08;50.95;100985.16;5011029;28;20065;-88
2021/07/24 08:55:34;;;;;;;0.85;0.85;;;;;;;25.06;50.90;100995.28;5012620;28;20363;-87
2021/07/24 08:58:01;;;;;;;0.65;0.20;;;;;;;25.09;51.00;100992.31;5012489;28;20485;-86
2021/07/24 09:00:28;;;;;;;0.60;0.60;;;;;;;25.14;50.99;100992.78;5012902;28;20084;-88
2021/07/24 09:03:00;;;;;;;0.10;0.10;;;;;;;25.14;51.05;100984.66;5011940;28;20054;-88
2021/07/24 09:05:29;;;;;;;0.10;0.10;;;;;;;25.22;51.03;100980.47;5012786;28;20022;-88
2021/07/24 09:07:57;;;;;;;0.28;0.25;;;;;;;25.26;50.69;100976.53;5011245;28;20484;-90
2021/07/24 09:10:23;;;;;;;13.80;0.75;;;;;;;25.34;50.51;100974.06;5012738;28;20065;-87
2021/07/24 09:12:53;;;;;;;0.75;0.75;;;;;;;25.34;50.61;100968.66;5012020;28;20025;-88
2021/07/24 09:15:19;;;;;;;0.20;0.20;;;;;;;25.45;50.68;100974.09;5012052;28;20072;-90
2021/07/24 09:17:46;;;;;;;0.63;0.63;;;;;;;25.58;50.62;100973.94;5015300;28;20057;-87
2021/07/24 09:20:13;;;;;;;0.88;0.57;;;;;;;25.64;50.31;100969.88;5018726;28;20033;-86
2021/07/24 09:22:41;;;;;;;0.57;0.57;;;;;;;25.83;50.47;100964.69;5016262;28;20092;-90
2021/07/24 09:25:12;;;;;;;0.20;0.20;;;;;;;25.98;49.81;100967.09;5016437;28;20481;-91
2021/07/24 09:30:34;;;;;;;0.55;0.55;;;;;;;25.98;49.01;100970.69;5049805;28;20437;-90
2021/07/24 09:33:05;;;;;;;3.40;1.58;;;;;;;25.95;49.83;100978.22;5037379;28;20392;-89
2021/07/24 09:38:28;;;;;;;1.35;0.90;;;;;;;26.21;48.93;100981.47;5046927;28;20397;-83
2021/07/24 09:40:56;;;;;;;0.68;0.68;;;;;;;26.24;47.94;100980.34;5031988;28;20101;-83
2021/07/24 09:43:43;;;;;;;0.10;0.10;;;;;;;26.43;48.66;100983.25;5031769;28;20037;-82
2021/07/24 09:46:27;;;;;;;0.95;0.50;;;;;;;26.44;48.09;100984.97;5032610;28;20103;-82
2021/07/24 09:49:15;;;;;;;3.55;1.27;;;;;;;26.46;48.26;100982.97;5031982;28;20424;-83
2021/07/24 09:51:46;;;;;;;1.25;0.47;;;;;;;26.52;48.31;100983.44;5033879;28;20038;-82
2021/07/24 09:54:28;;;;;;;;;;;;;;;26.69;47.88;100982.00;5021282;28;20508;-84
2021/07/24 09:56:55;;;;;;;0.20;0.20;;;;;;;26.70;47.81;100984.56;5026629;28;19921;-84
2021/07/24 10:02:04;;;;;;;0.77;0.77;;;;;;;26.84;47.71;100990.72;5072081;27;20408;-84
2021/07/24 10:04:35;;;;;;;0.10;0.10;;;;;;;26.86;47.23;100997.72;5059488;28;20511;-84
2021/07/24 10:09:44;;;;;;;0.10;0.10;;;;;;;26.93;47.62;100993.50;5130275;27;20395;-84
2021/07/24 10:12:13;;;;;;;0.40;0.40;;;;;;;26.98;47.84;100997.66;5135875;27;20031;-83
2021/07/24 10:14:41;;;;;;;0.10;0.10;;;;;;;27.02;47.06;100999.97;5117022;27;20027;-83
2021/07/24 10:17:09;;;;;;;0.10;0.10;;;;;;;27.10;47.49;100989.31;5130140;27;20031;-82
2021/07/24 10:19:36;;;;;;;0.93;0.88;;;;;;;27.16;47.76;100990.59;5131114;28;20039;-83
2021/07/24 10:22:02;;;;;;;0.10;0.10;;;;;;;27.24;47.59;100992.63;5109108;28;20027;-83
2021/07/24 10:24:29;;;;;;;0.28;0.28;;;;;;;27.22;47.39;100994.66;5130457;27;20027;-82
2021/07/24 10:29:57;;;;;;;0.20;0.20;;;;;;;27.19;47.92;100995.78;5065484;27;20839;-84
2021/07/24 10:32:28;;;;;;;0.22;0.22;;;;;;;27.16;48.09;100995.19;5046716;28;20053;-84
2021/07/24 10:34:55;;;;;;;0.43;0.43;;;;;;;27.12;48.03;100990.00;5047711;28;20033;-82
2021/07/24 10:43:05;;;;;;;0.10;0.10;;;;;;;27.11;48.21;100982.00;5069999;28;20439;-86
2021/07/24 10:54:05;;;;;;;0.10;0.10;;;;;;;27.26;48.34;100963.44;5125466;27;20409;-85
2021/07/24 10:56:39;;;;;;;0.13;0.13;;;;;;;27.24;48.37;100960.00;5128561;27;20504;-85
2021/07/24 10:59:26;;;;;;;0.00;0.00;;;;;;;27.26;48.42;100963.44;5108894;27;20447;-85
2021/07/24 11:01:54;;;;;;;1.20;0.65;;;;;;;27.15;48.56;100955.38;5095164;28;20036;-86
2021/07/24 11:10:06;;;;;;;0.10;0.10;;;;;;;27.01;48.69;100971.06;5068594;27;20455;-85
2021/07/24 11:12:35;;;;;;;0.10;0.10;;;;;;;26.91;49.11;100959.28;5059174;28;20052;-85
2021/07/24 11:15:03;;;;;;;0.17;0.17;;;;;;;26.87;49.15;100963.28;5054829;28;20036;-85
2021/07/24 11:17:29;;;;;;;0.10;0.10;;;;;;;26.84;49.33;100958.94;5061902;28;20020;-85
2021/07/24 11:22:37;;;;;;;0.47;0.47;;;;;;;26.79;49.24;100959.34;5066517;27;20469;-85
2021/07/24 11:27:48;;;;;;;0.40;0.38;;;;;;;26.75;49.15;100960.59;5097167;27;20977;-86
2021/07/24 11:30:16;;;;;;;0.10;0.10;;;;;;;26.76;49.14;100975.06;5087200;28;20036;-86
2021/07/24 11:32:45;;;;;;;0.20;0.20;;;;;;;26.78;49.20;100970.34;5080124;28;20082;-87
2021/07/24 11:35:14;;;;;;;0.43;0.43;;;;;;;26.80;49.42;100969.25;5071716;28;20051;-87
2021/07/24 11:40:26;;;;;;;0.17;0.17;;;;;;;26.87;49.52;100955.13;5076050;28;20511;-88
2021/07/24 11:43:07;;;;;;;0.20;0.20;;;;;;;26.94;49.57;100953.56;5061922;28;20040;-88
2021/07/24 11:45:39;;;;;;;0.10;0.10;;;;;;;27.01;49.69;100956.63;5056460;28;20026;-85
2021/07/24 11:51:10;;;;;;;0.50;0.50;;;;;;;27.17;49.42;100947.97;5102381;27;20403;-86
2021/07/24 11:53:37;;;;;;;1.65;0.55;;;;;;;27.05;49.73;100949.91;5090377;28;20036;-88
2021/07/24 11:56:04;;;;;;;0.85;0.85;;;;;;;27.05;49.97;100950.75;5097349;28;20043;-88
2021/07/24 11:58:32;;;;;;;0.15;0.15;;;;;;;27.05;50.04;100942.59;5089782;28;20082;-88
2021/07/24 12:01:00;;;;;;;0.73;0.73;;;;;;;27.06;50.28;100947.03;5086669;28;20044;-89
2021/07/24 12:03:30;;;;;;;0.40;0.40;;;;;;;27.05;50.82;100947.19;5098913;28;20061;-88
2021/07/24 12:06:10;;;;;;;0.40;0.40;;;;;;;27.19;49.94;100948.66;5089000;28;20070;-87
2021/07/24 12:08:40;;;;;;;0.10;0.10;;;;;;;27.18;49.87;100945.09;5098661;28;20038;-88
2021/07/24 12:11:13;;;;;;;0.20;0.20;;;;;;;27.24;49.65;100950.00;5105148;28;20119;-88
2021/07/24 12:13:39;;;;;;;1.27;0.43;;;;;;;27.24;49.71;100943.66;5096864;28;20024;-90
2021/07/24 12:16:07;;;;;;;0.32;0.32;;;;;;;27.27;49.63;100955.16;5097822;28;20032;-89
2021/07/24 12:21:35;;;;;;;0.57;0.57;;;;;;;27.35;49.62;100967.22;5082106;27;20398;-85